weather.gov     
National Weather Service

Extended Streamflow Prediction
NWS Homepage
This page is being discontinued on March 12, 2014.
The same data is available at this site. Please update your bookmarks.
Thank you, and we apologize for the inconvenience.
Please send an email to SR-SRH.Webmaster@noaa.gov with any concerns.


Current Version
Previous Version:    01  02  03  04  05  06  07  08  09  10  11  12  13  14  15  16  17  18  19  20  21  22  23  24  25  
[Printable]
607
FGUS64 KORN 271855
ESPORN
EXTENDED STREAMFLOW PREDICTION
NATIONAL WEATHER SERVICE RIVER FORECAST CENTER, SLIDELL, LA
100 PM CDT WED 27 2014

   DATE   CPGM7 CIRI2 NMDM7 TPTT1 CRTM7 OSGA4 MEMT1 TRPM6 HEEA4
08-28-14   18.1  21.5  10.4  12.9  12.7   4.7   4.8  15.2  11.1
08-29-14   17.4  21.3  10.8  13.5  13.1   4.8   4.7  15.1  11.1
08-30-14   16.8  19.9   9.9  13.2  13.4   5.4   5.1  15.1  11.0
08-31-14   16.9  18.7   8.6  12.2  12.6   5.1   5.4  15.7  11.3
09-01-14   17.0  17.9   7.5  10.9  11.4   4.1   4.6  15.4  11.7
09-02-14   16.6  17.1   6.9  10.2  10.5   2.7   3.3  14.5  10.9
09-03-14   16.0  16.1   6.0   9.5   9.9   1.9   2.4  13.2   9.8
09-04-14   15.5  14.9   5.0   8.6   9.1   1.2   1.8  12.6   8.9
09-05-14   15.3  14.0   3.8   7.4   8.2   0.3   1.0  11.9   8.3
09-06-14   15.3  13.7   3.3   6.7   7.1  -0.9   0.0  11.1   7.6
09-07-14   15.2  13.3   3.0   6.4   6.7  -1.6  -1.1   9.9   6.7
09-08-14   14.8  13.1   2.7   6.0   6.4  -1.9  -1.5   9.2   5.6
09-09-14   13.9  15.4   2.7   5.8   6.2  -2.3  -1.9   8.9   5.3
09-10-14   13.0  17.1   5.6   7.9   6.1  -2.5  -2.1   8.6   4.9
09-11-14   12.2  16.8   5.7   8.8   8.8  -0.3  -2.1   8.4   4.7
09-12-14   11.8  16.4   5.6   8.7   8.9   0.5   0.6  10.4   4.7
09-13-14   11.4  15.9   5.4   8.5   8.7   0.4   0.7  11.2   7.2
09-14-14   11.1  15.5   5.1   8.2   8.4   0.2   0.5  11.1   7.3
09-15-14   10.7  15.1   4.9   7.9   8.1  -0.1   0.2  10.9   7.1
09-16-14   10.4  14.9   4.6   7.6   7.9  -0.5  -0.1  10.6   6.9
09-17-14   10.0  14.7   4.3   7.3   7.5  -0.8  -0.3  10.2   6.5
09-18-14    9.6  14.5   4.1   7.1   7.2  -1.2  -0.7   9.9   6.3
09-19-14    9.2  14.3   3.9   6.8   6.9  -1.4  -1.0   9.6   6.0
09-20-14    8.8  14.1   3.7   6.5   6.7  -1.8  -1.3   9.4   5.6
09-21-14    8.4  14.0   3.3   6.2   6.4  -2.1  -1.6   9.0   5.3
09-22-14    8.2  13.9   3.1   5.9   6.0  -2.5  -1.9   8.7   5.2
09-23-14    7.9  13.8   2.9   5.6   5.7  -2.7  -2.3   8.4   4.9
09-24-14    7.7  13.7   2.7   5.3   5.4  -3.1  -2.6   8.2   4.5

   DATE   ARSA4 GEEM6 VCKM6 NTZM6 RRLL1 BTRL1 DONL1 RRVL1 NORL1
08-28-14    9.0  19.2  13.7  20.3  23.4   9.5   5.3   4.0   3.1
08-29-14    9.6  20.0  14.0  20.6  23.4   9.5   5.3   4.0   3.0
08-30-14    9.6  20.2  14.8  20.9  23.7   9.6   5.4   4.0   3.0
08-31-14    9.5  20.1  15.0  21.6  24.0   9.8   5.6   4.0   3.0
09-01-14    9.7  20.1  14.9  21.8  24.7  10.5   5.8   4.1   3.1
09-02-14    9.6  20.3  14.9  21.8  24.9  10.9   6.2   4.5   3.2
09-03-14    9.2  20.1  15.1  21.8  24.8  11.0   6.4   4.7   3.5
09-04-14    8.4  19.5  14.9  21.9  24.8  10.9   6.4   4.7   3.5
09-05-14    7.5  18.6  14.3  21.8  25.0  11.1   6.4   4.7   3.5
09-06-14    7.0  18.0  13.5  21.2  24.8  11.1   6.5   4.8   3.5
09-07-14    6.3  17.4  12.9  20.4  24.3  10.8   6.4   4.8   3.6
09-08-14    5.5  16.8  12.4  19.9  23.6  10.1   6.0   4.6   3.5
09-09-14    4.5  15.8  11.8  19.4  23.1   9.4   5.5   4.3   3.4
09-10-14    4.2  15.2  10.8  18.8  22.6   9.0   5.2   4.0   3.1
09-11-14    3.8  14.9  10.2  17.9  22.1   8.5   4.9   3.7   2.9
09-12-14    3.6  14.6  10.0  17.3  21.2   8.0   4.5   3.5   2.8
09-13-14    3.6  14.5   9.8  17.2  20.7   7.2   4.0   3.3   2.7
09-14-14    6.0  16.2   9.6  16.9  20.5   6.9   3.6   2.9   2.4
09-15-14    6.1  16.9  11.3  16.8  20.3   6.7   3.5   2.8   2.2
09-16-14    5.9  16.8  11.9  18.4  20.2   6.5   3.3   2.6   2.2
09-17-14    5.7  16.7  11.9  19.0  21.7   6.6   3.2   2.6   2.1
09-18-14    5.4  16.4  11.7  18.9  22.3   8.4   4.3   2.6   2.0
09-19-14    5.2  16.1  11.5  18.8  22.2   8.5   4.6   3.5   2.6
09-20-14    4.9  15.8  11.2  18.6  22.1   8.4   4.6   3.5   2.7
09-21-14    4.6  15.6  10.9  18.3  21.9   8.2   4.5   3.5   2.7
09-22-14    4.3  15.4  10.8  18.0  21.7   8.0   4.4   3.4   2.7
09-23-14    4.1  15.1  10.5  17.9  21.4   7.8   4.2   3.3   2.6
09-24-14    3.8  14.9  10.3  17.7  21.3   7.6   4.0   3.2   2.5

NOTE: STAGE FORECASTS ARE BASED ON FUTURE RAINFALL COVERING
THE NEXT 24 HOURS.

END ORN


$$






U.S. Dept. of Commerce
NOAA National Weather Service
1325 East West Highway
Silver Spring, MD 20910
E-mail: w-nws.webmaster@noaa.gov
Page last modified: May 16, 2007
NATIONAL WEATHER SERVICE: for Safety, for Work, for Fun - FOR LIFE